Time;durP1;ratioP1;P1;durP2;ratioP2;P2;SDS_P1;SDS_P2;PMS_P1;PMS_P2;Temp;Humidity;BMP_temperature;BMP_pressure;BME280_temperature;BME280_humidity;BME280_pressure;Samples;Min_cycle;Max_cycle;Signal;HPM_P1;HPM_P2
2023/06/28 00:01:08;;;;;;;5.60;1.90;;;14.90;99.90;;;-144.05;63.66;56819.09;5075826;28;20024;-86
2023/06/28 00:03:33;;;;;;;4.97;1.73;;;14.80;99.90;;;-144.05;64.09;56814.84;5075281;28;20527;-82
2023/06/28 00:05:59;;;;;;;5.68;1.80;;;14.80;99.90;;;-144.05;64.25;56819.09;5076240;28;20044;-84
2023/06/28 00:08:25;;;;;;;4.50;2.08;;;14.80;99.90;;;-144.05;64.35;56810.59;5076719;28;20056;-84
2023/06/28 00:10:51;;;;;;;4.95;2.00;;;14.80;99.90;;;-144.05;64.75;56823.34;5075524;28;20028;-84
2023/06/28 00:13:18;;;;;;;3.03;1.92;;;14.80;99.90;;;-144.05;64.97;56825.47;5075960;28;20029;-82
2023/06/28 00:15:45;;;;;;;6.03;1.92;;;14.80;99.90;;;-144.05;65.17;56827.59;5074098;28;20031;-82
2023/06/28 00:18:11;;;;;;;4.68;1.90;;;14.80;99.90;;;-144.05;65.24;56842.47;5074348;28;20086;-81
2023/06/28 00:20:40;;;;;;;4.32;1.90;;;14.70;99.90;;;-144.05;65.42;56840.34;5078664;28;20044;-81
2023/06/28 00:23:08;;;;;;;5.45;1.70;;;14.70;99.90;;;-144.05;65.43;56797.88;5080795;28;20036;-85
2023/06/28 00:25:35;;;;;;;8.82;2.33;;;14.70;99.90;;;-144.05;65.41;56840.34;5076024;28;20021;-84
2023/06/28 00:28:01;;;;;;;4.60;2.25;;;14.70;99.90;;;-144.05;65.68;56844.59;5061511;28;20037;-82
2023/06/28 00:30:27;;;;;;;4.88;1.75;;;14.70;99.90;;;-144.05;65.76;56836.09;5043547;28;20044;-84
2023/06/28 00:32:53;;;;;;;3.97;1.85;;;14.70;99.90;;;-144.05;66.05;56797.88;5043388;28;20095;-83
2023/06/28 00:35:19;;;;;;;5.15;1.98;;;14.70;99.90;;;-144.05;66.42;56827.59;5061623;28;20036;-84
2023/06/28 00:37:45;;;;;;;4.25;1.70;;;14.70;99.90;;;-144.05;66.78;56816.97;5063241;28;20033;-84
2023/06/28 00:40:10;;;;;;;4.90;1.90;;;14.70;99.90;;;-144.05;66.74;56831.84;5042983;28;20036;-83
2023/06/28 00:42:36;;;;;;;4.45;2.17;;;14.60;99.90;;;-144.05;66.68;56838.22;5035136;28;20036;-82
2023/06/28 00:45:02;;;;;;;3.65;2.28;;;14.60;99.90;;;-144.05;67.04;56846.72;5052697;28;20052;-82
2023/06/28 00:47:31;;;;;;;2.38;1.70;;;14.60;99.90;;;-144.05;67.14;56812.72;5050818;28;20059;-81
2023/06/28 00:50:00;;;;;;;3.15;1.83;;;14.60;99.90;;;-144.05;67.44;56827.59;5034301;28;20033;-83
2023/06/28 00:52:26;;;;;;;3.63;2.10;;;14.60;99.90;;;-144.05;67.79;56844.59;5051718;28;20036;-82
2023/06/28 00:54:52;;;;;;;3.92;2.00;;;14.50;99.90;;;-144.05;67.84;56829.72;5052051;28;20163;-81
2023/06/28 00:57:19;;;;;;;2.15;1.58;;;14.40;99.90;;;-144.05;68.11;56812.72;5033923;28;20029;-81
2023/06/28 00:59:47;;;;;;;3.40;1.80;;;14.40;99.90;;;-144.05;68.09;56827.59;5055834;28;20029;-84
2023/06/28 01:02:13;;;;;;;4.07;1.85;;;14.30;99.90;;;-144.05;68.43;56814.84;5054139;28;20029;-82
2023/06/28 01:04:40;;;;;;;2.75;1.85;;;14.30;99.90;;;-144.05;68.73;56808.47;5052725;28;20039;-83
2023/06/28 01:07:08;;;;;;;4.45;2.08;;;14.30;99.90;;;-144.05;69.28;56825.47;5054093;28;20131;-82
2023/06/28 01:09:34;;;;;;;3.97;1.90;;;14.20;99.90;;;-144.05;69.50;56829.72;5035982;28;20503;-81
2023/06/28 01:12:02;;;;;;;6.90;1.83;;;14.20;99.90;;;-144.05;69.72;56812.72;5036155;28;20079;-81
2023/06/28 01:14:29;;;;;;;4.38;1.90;;;14.20;99.90;;;-144.05;69.70;56838.22;5052552;28;20028;-81
2023/06/28 01:16:55;;;;;;;4.25;2.05;;;14.20;99.90;;;-144.05;70.01;56816.97;5053841;28;20186;-81
2023/06/28 01:19:27;;;;;;;4.93;2.22;;;14.10;99.90;;;-144.05;70.20;56829.72;5053787;28;20512;-81
2023/06/28 01:22:01;;;;;;;4.05;2.10;;;14.10;99.90;;;-144.05;70.35;56825.47;5053971;28;20070;-81
2023/06/28 01:24:27;;;;;;;3.08;1.58;;;14.10;99.90;;;-144.05;70.46;56823.34;5052459;28;20036;-83
2023/06/28 01:26:58;;;;;;;3.70;2.40;;;14.10;99.90;;;-144.05;70.68;56819.09;5068135;28;20074;-81
2023/06/28 01:29:25;;;;;;;3.05;1.80;;;14.10;99.90;;;-144.05;70.68;56840.34;5073712;28;20024;-81
2023/06/28 01:31:56;;;;;;;2.42;1.75;;;14.00;99.90;;;-144.05;70.99;56857.34;5072385;28;20400;-82
2023/06/28 01:34:24;;;;;;;4.15;1.90;;;14.00;99.90;;;-144.05;71.05;56836.09;5073184;28;20120;-82
2023/06/28 01:36:54;;;;;;;5.40;2.03;;;14.00;99.90;;;-144.05;71.37;56836.09;5073324;28;20480;-83
2023/06/28 01:39:22;;;;;;;5.25;1.75;;;14.00;99.90;;;-144.05;71.50;56846.72;5073548;28;20032;-83
2023/06/28 01:41:51;;;;;;;3.25;2.08;;;13.90;99.90;;;-144.05;71.70;56816.97;5073521;28;20100;-83
2023/06/28 01:44:18;;;;;;;7.43;2.22;;;13.90;99.90;;;-144.05;72.18;56810.59;5074007;28;20024;-84
2023/06/28 01:46:46;;;;;;;6.57;2.40;;;13.90;99.90;;;-144.05;72.38;56804.22;5074502;28;20056;-83
2023/06/28 01:49:12;;;;;;;5.32;2.25;;;13.90;99.90;;;-144.05;72.71;56821.22;5074561;28;20036;-81
2023/06/28 01:51:39;;;;;;;5.30;1.92;;;13.90;99.90;;;-144.05;72.59;56844.59;5072860;28;20033;-80
2023/06/28 01:54:05;;;;;;;3.25;1.85;;;13.90;99.90;;;-144.05;72.76;56823.34;5074512;28;20032;-82
2023/06/28 01:56:31;;;;;;;4.03;2.55;;;13.90;99.90;;;-144.05;72.82;56819.09;5072812;28;20058;-84
2023/06/28 01:58:57;;;;;;;7.75;2.53;;;13.80;99.90;;;-144.05;73.23;56831.84;5056105;28;20036;-82
2023/06/28 02:01:23;;;;;;;3.22;1.63;;;13.80;99.90;;;-144.05;73.42;56823.34;5073838;28;20024;-84
2023/06/28 02:03:49;;;;;;;4.03;1.98;;;13.70;99.90;;;-144.05;73.67;56812.72;5055525;28;20063;-82
2023/06/28 02:06:15;;;;;;;5.85;2.55;;;13.70;99.90;;;-144.05;73.84;56831.84;5055570;28;20511;-81
2023/06/28 02:08:41;;;;;;;5.10;1.92;;;13.70;99.90;;;-144.05;73.99;56825.47;5071869;28;20164;-82
2023/06/28 02:11:07;;;;;;;4.80;1.83;;;13.60;99.90;;;-144.05;74.26;56825.47;5055240;28;20032;-83
2023/06/28 02:13:33;;;;;;;3.92;1.70;;;13.60;99.90;;;-144.05;74.44;56825.47;5055254;28;20074;-80
2023/06/28 02:15:59;;;;;;;8.40;2.22;;;13.60;99.90;;;-144.05;74.68;56853.09;5073443;28;20033;-81
2023/06/28 02:18:24;;;;;;;5.03;2.10;;;13.60;99.90;;;-144.05;75.03;56831.84;5073378;28;20036;-83
2023/06/28 02:20:54;;;;;;;3.30;1.92;;;13.60;99.90;;;-144.05;75.46;56812.72;5073137;28;20086;-82
2023/06/28 02:23:20;;;;;;;4.38;2.25;;;13.60;99.90;;;-144.05;75.46;56836.09;5055359;28;20474;-81
2023/06/28 02:25:47;;;;;;;3.28;1.83;;;13.50;99.90;;;-144.05;75.54;56844.59;5055380;28;20032;-82
2023/06/28 02:28:13;;;;;;;5.95;2.33;;;13.40;99.90;;;-144.05;76.02;56836.09;5078096;28;20024;-79
2023/06/28 02:30:39;;;;;;;3.35;2.03;;;13.30;99.90;;;-144.05;76.05;56821.22;5080772;28;20036;-84
2023/06/28 02:33:04;;;;;;;3.65;2.22;;;13.30;99.90;;;-144.05;76.34;56825.47;5075833;28;20039;-84
2023/06/28 02:35:31;;;;;;;6.35;2.25;;;13.30;99.90;;;-144.05;76.57;56823.34;5075440;28;20024;-83
2023/06/28 02:37:57;;;;;;;5.05;2.20;;;13.20;99.90;;;-144.05;76.77;56825.47;5075072;28;20028;-84
2023/06/28 02:40:24;;;;;;;5.25;2.30;;;13.30;99.90;;;-144.05;76.75;56836.09;5057623;28;20043;-84
2023/06/28 02:42:51;;;;;;;5.07;2.30;;;13.20;99.90;;;-144.05;76.91;56833.97;5056709;28;20024;-84
2023/06/28 02:45:16;;;;;;;4.47;2.50;;;13.20;99.90;;;-144.05;77.05;56829.72;5075258;28;20032;-84
2023/06/28 02:47:42;;;;;;;5.53;2.70;;;13.20;99.90;;;-144.05;77.14;56819.09;5056843;28;20029;-85
2023/06/28 02:50:09;;;;;;;3.58;2.40;;;13.20;99.90;;;-144.05;77.28;56831.84;5084100;28;20071;-82
2023/06/28 02:52:34;;;;;;;4.72;2.10;;;13.20;99.90;;;-144.05;77.46;56823.34;5085265;28;20168;-85
2023/06/28 02:55:00;;;;;;;4.78;2.47;;;13.20;99.90;;;-144.05;77.77;56827.59;5057544;28;20020;-84
2023/06/28 02:57:26;;;;;;;7.18;2.60;;;13.20;99.90;;;-144.05;77.96;56833.97;5075212;28;20047;-84
2023/06/28 02:59:52;;;;;;;3.80;2.35;;;13.30;99.90;;;-144.05;78.01;56831.84;5074990;28;20037;-85
2023/06/28 03:02:18;;;;;;;5.93;2.20;;;13.20;99.90;;;-144.05;78.25;56816.97;5073456;28;20502;-84
2023/06/28 03:04:44;;;;;;;10.10;3.03;;;13.30;99.90;;;-144.05;78.41;56814.84;5074262;28;20041;-84
2023/06/28 03:07:16;;;;;;;5.78;2.70;;;13.30;99.90;;;-144.05;78.08;56821.22;5056222;28;20032;-83
2023/06/28 03:09:42;;;;;;;8.27;2.67;;;13.40;99.90;;;-144.05;78.03;56844.59;5073707;28;20063;-83
2023/06/28 03:12:10;;;;;;;4.90;2.38;;;13.40;99.90;;;-144.05;77.98;56827.59;5055786;28;20039;-83
2023/06/28 03:14:36;;;;;;;5.78;2.30;;;13.50;99.90;;;-144.05;77.81;56816.97;5072047;28;20070;-82
2023/06/28 03:17:03;;;;;;;4.47;2.40;;;13.50;99.90;;;-144.05;77.82;56821.22;5073694;28;20070;-82
2023/06/28 03:19:30;;;;;;;9.13;2.97;;;13.50;99.90;;;-144.05;77.84;56812.72;5073193;28;20024;-83
2023/06/28 03:21:56;;;;;;;6.88;2.38;;;13.60;99.90;;;-144.05;77.58;56836.09;5055264;28;20032;-84
2023/06/28 03:24:22;;;;;;;4.95;2.50;;;13.60;99.90;;;-144.05;77.25;56842.47;5055351;28;20044;-84
2023/06/28 03:26:48;;;;;;;3.90;2.25;;;13.60;99.90;;;-144.05;77.14;56836.09;5058760;28;20111;-84
2023/06/28 03:29:14;;;;;;;5.97;2.30;;;13.70;99.90;;;-144.05;76.74;56827.59;5035098;28;20476;-85
2023/06/28 03:31:39;;;;;;;5.28;1.92;;;13.60;99.90;;;-144.05;76.69;56829.72;5052850;28;20041;-83
2023/06/28 03:34:05;;;;;;;5.10;2.70;;;13.70;99.90;;;-144.05;76.82;56842.47;5051506;28;20024;-85
2023/06/28 03:36:32;;;;;;;3.53;1.98;;;13.70;99.90;;;-144.05;76.77;56808.47;5034932;28;20062;-84
2023/06/28 03:38:58;;;;;;;5.90;2.95;;;13.70;99.90;;;-144.05;76.70;56823.34;5052464;28;20032;-83
2023/06/28 03:41:28;;;;;;;7.15;2.40;;;13.70;99.90;;;-144.05;76.50;56821.22;5053056;28;20464;-85
2023/06/28 03:43:54;;;;;;;3.45;2.15;;;13.80;99.90;;;-144.05;76.39;56825.47;5053452;28;20032;-84
2023/06/28 03:46:20;;;;;;;5.43;2.30;;;13.80;99.90;;;-144.05;76.50;56825.47;5052990;28;20047;-83
2023/06/28 03:48:46;;;;;;;6.45;2.40;;;13.80;99.90;;;-144.05;76.32;56840.34;5036323;28;20116;-83
2023/06/28 03:51:12;;;;;;;5.07;2.53;;;13.80;99.90;;;-144.05;76.08;56827.59;5052774;28;20051;-82
2023/06/28 03:53:38;;;;;;;5.85;2.25;;;13.90;99.90;;;-144.05;76.08;56833.97;5035699;28;20048;-82
2023/06/28 03:56:04;;;;;;;5.28;2.45;;;13.90;99.90;;;-144.05;75.75;56819.09;5053666;28;20078;-82
2023/06/28 03:58:30;;;;;;;7.50;1.85;;;14.00;99.90;;;-144.05;75.60;56827.59;5051791;28;20176;-82
2023/06/28 04:00:56;;;;;;;5.88;2.50;;;14.10;99.90;;;-144.05;75.37;56831.84;5053689;28;20451;-82
2023/06/28 04:03:21;;;;;;;6.00;2.83;;;14.20;99.90;;;-144.05;75.10;56840.34;5054141;28;20353;-83
2023/06/28 04:05:47;;;;;;;3.28;2.25;;;14.30;99.90;;;-144.05;74.87;56838.22;5052567;28;20396;-81
2023/06/28 04:08:14;;;;;;;7.60;2.72;;;14.30;99.90;;;-144.05;74.34;56819.09;5053991;28;20033;-83
2023/06/28 04:10:43;;;;;;;6.18;2.63;;;14.40;99.90;;;-144.05;74.07;56844.59;5035723;28;20032;-82
2023/06/28 04:13:09;;;;;;;6.43;2.72;;;14.40;99.90;;;-144.05;73.70;56831.84;5052317;28;21401;-82
2023/06/28 04:15:34;;;;;;;6.47;2.42;;;14.50;99.90;;;-144.05;73.42;56825.47;5052790;28;20108;-81
2023/06/28 04:18:00;;;;;;;6.32;2.30;;;14.50;99.90;;;-144.05;73.10;56823.34;5054278;28;20373;-82
2023/06/28 04:20:26;;;;;;;7.22;2.88;;;14.50;99.90;;;-144.05;73.00;56853.09;5054869;28;20025;-81
2023/06/28 04:22:53;;;;;;;4.38;2.40;;;14.50;99.90;;;-144.05;72.84;56825.47;5054347;28;20025;-83
2023/06/28 04:25:19;;;;;;;5.43;2.13;;;14.50;99.90;;;-144.05;72.48;56831.84;5057034;28;20043;-83
2023/06/28 04:27:45;;;;;;;9.48;2.72;;;14.60;99.90;;;-144.05;72.14;56842.47;5074522;28;20024;-84
2023/06/28 04:30:11;;;;;;;5.82;2.50;;;14.60;99.90;;;-144.05;72.26;56829.72;5056960;28;20120;-83
2023/06/28 04:32:37;;;;;;;7.97;2.70;;;14.60;99.90;;;-144.05;71.91;56827.59;5057444;28;20043;-81
2023/06/28 04:35:03;;;;;;;8.27;3.08;;;14.70;99.90;;;-144.05;71.49;56823.34;5098846;22;20044;-80
2023/06/28 04:37:32;;;;;;;8.00;2.90;;;14.70;99.90;;;-144.05;71.50;56844.59;5076767;28;20044;-83
2023/06/28 04:40:00;;;;;;;5.97;3.13;;;14.70;99.90;;;-144.05;71.51;56816.97;5076863;28;20024;-82
2023/06/28 04:42:26;;;;;;;9.10;3.10;;;14.70;99.90;;;-144.05;71.17;56819.09;5059140;28;20055;-81
2023/06/28 04:44:54;;;;;;;8.40;3.42;;;14.80;99.90;;;-144.05;70.90;56823.34;5058888;28;20118;-81
2023/06/28 04:47:20;;;;;;;5.80;2.88;;;14.80;99.90;;;-144.05;70.81;56840.34;5074996;28;20130;-81
2023/06/28 04:49:49;;;;;;;7.45;3.00;;;14.90;99.90;;;-144.05;70.87;56861.56;5075944;28;20035;-82
2023/06/28 04:52:18;;;;;;;6.63;2.78;;;14.80;99.90;;;-144.05;70.56;56855.22;5058441;28;20037;-84
2023/06/28 04:54:46;;;;;;;6.43;2.50;;;14.80;99.90;;;-144.05;70.70;56833.97;5074586;28;20104;-82
2023/06/28 04:57:14;;;;;;;5.13;2.85;;;14.80;99.90;;;-144.05;70.76;56844.59;5076327;28;20036;-83
2023/06/28 04:59:41;;;;;;;5.18;2.47;;;14.80;99.90;;;-144.05;70.64;56853.09;5076103;28;20099;-82
2023/06/28 05:02:09;;;;;;;6.47;2.67;;;14.80;99.90;;;-144.05;70.81;56840.34;5076163;28;20025;-84
2023/06/28 05:04:37;;;;;;;4.07;2.30;;;14.80;99.90;;;-144.05;70.84;56821.22;5074212;28;20033;-81
2023/06/28 05:07:06;;;;;;;5.03;2.55;;;14.80;99.90;;;-144.05;70.83;56840.34;5074124;28;20047;-83
2023/06/28 05:09:35;;;;;;;6.32;2.95;;;14.90;99.90;;;-144.05;70.88;56821.22;5073860;28;20028;-82
2023/06/28 05:12:03;;;;;;;9.02;2.45;;;14.90;99.90;;;-144.05;70.91;56840.34;5058024;28;20487;-81
2023/06/28 05:14:31;;;;;;;5.78;2.53;;;15.00;99.90;;;-144.05;70.76;56838.22;5074538;28;20021;-79
2023/06/28 05:16:57;;;;;;;5.07;2.28;;;15.00;99.90;;;-144.05;70.71;56836.09;5074680;28;20422;-80
2023/06/28 05:19:25;;;;;;;6.10;2.47;;;15.10;99.90;;;-144.05;70.53;56819.09;5074670;28;20025;-82
2023/06/28 05:21:51;;;;;;;4.70;2.88;;;15.20;99.90;;;-144.05;70.30;56821.22;5076170;28;20161;-81
2023/06/28 05:24:19;;;;;;;5.65;3.03;;;15.30;99.90;;;-144.05;69.54;56819.09;5074360;28;20463;-80
2023/06/28 05:26:46;;;;;;;7.50;3.17;;;15.50;99.90;;;-144.05;68.59;56842.47;5074434;28;20040;-81
2023/06/28 05:29:12;;;;;;;6.65;2.92;;;15.60;99.90;;;-144.05;67.39;56810.59;5075186;28;20040;-79
2023/06/28 05:31:40;;;;;;;11.50;3.35;;;15.80;99.90;;;-144.05;65.73;56831.84;5074536;28;20036;-81
2023/06/28 05:34:06;;;;;;;9.10;2.90;;;16.10;99.90;;;-144.05;63.97;56819.09;5075750;28;20476;-83
2023/06/28 05:36:32;;;;;;;8.18;2.85;;;16.40;99.90;;;-144.05;63.16;56838.22;5076190;28;20504;-80
2023/06/28 05:38:59;;;;;;;9.07;2.80;;;16.60;99.90;;;-144.05;61.62;56806.34;5077230;28;20028;-80
2023/06/28 05:41:24;;;;;;;5.15;2.13;;;16.80;99.90;;;-144.05;60.71;56836.09;5077305;28;20480;-82
2023/06/28 05:43:50;;;;;;;8.93;3.03;;;17.20;99.90;;;-144.05;58.65;56836.09;5059598;28;20035;-80
2023/06/28 05:46:16;;;;;;;7.30;2.90;;;17.40;99.90;;;-144.05;57.92;56846.72;5074873;28;20090;-77
2023/06/28 05:48:43;;;;;;;4.88;2.47;;;17.60;99.90;;;-144.05;57.40;56846.72;5074703;28;20032;-76
2023/06/28 05:51:12;;;;;;;5.53;2.40;;;17.70;99.90;;;-144.05;57.63;56833.97;5074765;28;20058;-78
2023/06/28 05:53:40;;;;;;;10.13;3.38;;;17.70;99.90;;;-144.05;57.82;56838.22;5056129;28;20021;-77
2023/06/28 05:56:08;;;;;;;7.40;2.63;;;17.60;99.90;;;-144.05;58.00;56861.56;5074604;28;20025;-77
2023/06/28 05:58:34;;;;;;;7.15;2.70;;;17.50;99.90;;;-144.05;58.13;56861.56;5074262;28;20048;-78
2023/06/28 06:01:01;;;;;;;10.13;3.15;;;17.50;99.90;;;-144.05;57.80;56819.09;5075274;28;20361;-81
2023/06/28 06:03:27;;;;;;;5.97;3.03;;;17.60;99.90;;;-144.05;58.24;56838.22;5076054;28;20024;-80
2023/06/28 06:05:54;;;;;;;12.68;3.40;;;17.50;99.90;;;-144.05;58.60;56829.72;5076139;28;20063;-80
2023/06/28 06:08:21;;;;;;;9.50;3.30;;;17.60;99.90;;;-144.05;58.62;56861.56;5074418;28;20029;-81
2023/06/28 06:10:46;;;;;;;7.53;3.10;;;17.60;99.90;;;-144.05;58.85;56859.47;5074515;28;20075;-81
2023/06/28 06:13:12;;;;;;;9.10;3.40;;;17.60;99.90;;;-144.05;58.19;56859.47;5074761;28;20020;-81
2023/06/28 06:15:38;;;;;;;7.25;3.42;;;17.80;99.90;;;-144.05;57.61;56844.59;5076414;28;20070;-80
2023/06/28 06:18:04;;;;;;;10.25;3.95;;;17.90;99.90;;;-144.05;57.41;56833.97;5073628;28;20024;-82
2023/06/28 06:20:31;;;;;;;9.32;4.00;;;18.00;99.90;;;-144.05;56.40;56840.34;5058173;28;20111;-80
2023/06/28 06:22:57;;;;;;;9.30;4.45;;;18.00;99.90;;;-144.05;56.27;56840.34;5073841;28;20033;-82
2023/06/28 06:25:23;;;;;;;8.73;4.72;;;18.10;99.90;;;-144.05;55.46;56848.84;5074591;28;20204;-80
2023/06/28 06:27:49;;;;;;;7.60;3.92;;;18.20;99.90;;;-144.05;55.18;56836.09;5074993;28;20020;-82
2023/06/28 06:30:15;;;;;;;9.00;4.85;;;18.20;99.90;;;-144.05;54.34;56853.09;5074637;28;20032;-81
2023/06/28 06:32:41;;;;;;;7.43;5.00;;;18.30;99.90;;;-144.05;54.34;56840.34;5057497;28;20105;-82
2023/06/28 06:35:07;;;;;;;12.70;5.93;;;18.30;99.90;;;-144.05;54.12;56865.81;5066238;28;20041;-80
2023/06/28 06:37:33;;;;;;;9.65;4.57;;;18.30;99.90;;;-144.05;54.59;56842.47;5076000;28;20044;-81
2023/06/28 06:40:00;;;;;;;6.90;3.60;;;18.40;99.90;;;-144.05;54.60;56859.47;5059926;28;20387;-81
2023/06/28 06:42:26;;;;;;;10.55;3.95;;;18.40;99.90;;;-144.05;54.24;56836.09;5058396;28;20028;-81
2023/06/28 06:44:52;;;;;;;6.63;3.85;;;18.40;99.90;;;-144.05;54.77;56870.06;5057794;28;20051;-80
2023/06/28 06:47:17;;;;;;;9.57;4.28;;;18.50;99.90;;;-144.05;54.24;56857.34;5074067;28;20037;-83
2023/06/28 06:49:43;;;;;;;10.35;4.07;;;18.40;99.90;;;-144.05;55.72;56867.94;5057090;28;20476;-81
2023/06/28 06:52:09;;;;;;;13.18;3.72;;;18.40;99.90;;;-144.05;54.17;56848.84;5075307;28;20038;-81
2023/06/28 06:54:37;;;;;;;7.78;3.78;;;18.50;99.90;;;-144.05;52.92;56853.09;5074268;28;20060;-80
2023/06/28 06:57:03;;;;;;;15.63;4.13;;;18.70;99.90;;;-144.05;51.97;56846.72;5056674;28;20459;-78
2023/06/28 06:59:29;;;;;;;11.10;4.32;;;18.70;99.90;;;-144.05;52.32;56848.84;5056351;28;20484;-81
2023/06/28 07:01:55;;;;;;;8.07;3.22;;;18.70;99.90;;;-144.05;52.38;56855.22;5056946;28;20184;-80
2023/06/28 07:04:24;;;;;;;9.43;3.40;;;18.60;99.90;;;-144.05;51.97;56836.09;5056505;28;20067;-82
2023/06/28 07:06:50;;;;;;;9.43;3.53;;;18.60;99.90;;;-144.05;52.33;56840.34;5056477;28;20032;-82
2023/06/28 07:09:18;;;;;;;9.50;2.80;;;18.50;99.90;;;-144.05;52.05;56850.97;5076890;28;20032;-84
2023/06/28 07:11:46;;;;;;;8.02;3.10;;;18.60;99.90;;;-144.05;51.27;56855.22;5077939;28;20055;-83
2023/06/28 07:14:11;;;;;;;8.00;3.38;;;18.70;99.90;;;-144.05;51.49;56853.09;5076629;28;20046;-82
2023/06/28 07:16:37;;;;;;;5.50;2.45;;;18.90;99.90;;;-144.05;50.44;56865.81;5058799;28;20487;-81
2023/06/28 07:19:05;;;;;;;8.32;2.72;;;19.10;99.90;;;-144.05;50.23;56874.31;5077041;28;20024;-82
2023/06/28 07:21:31;;;;;;;6.97;2.45;;;19.00;99.90;;;-144.05;49.35;56855.22;5058285;28;20442;-81
2023/06/28 07:23:57;;;;;;;8.68;2.58;;;19.10;99.90;;;-144.05;48.75;56863.69;5057672;28;20029;-81
2023/06/28 07:26:23;;;;;;;8.73;2.63;;;19.30;99.90;;;-144.05;48.03;56857.34;5055079;28;20425;-81
2023/06/28 07:28:50;;;;;;;5.97;2.53;;;19.20;99.90;;;-144.05;48.54;56880.69;5055707;28;20100;-80
2023/06/28 07:31:16;;;;;;;7.57;2.00;;;19.40;99.90;;;-144.05;46.88;56855.22;5055741;28;20580;-81
2023/06/28 07:33:42;;;;;;;5.35;2.15;;;19.60;99.90;;;-144.05;46.61;56882.81;5053173;28;20037;-79
2023/06/28 07:36:09;;;;;;;4.95;1.70;;;19.80;99.90;;;-144.05;44.59;56895.56;5036998;28;20125;-81
2023/06/28 07:38:35;;;;;;;4.25;1.55;;;19.90;99.90;;;-144.05;43.39;56861.56;5054077;28;20558;-81
2023/06/28 07:41:02;;;;;;;7.22;1.77;;;19.90;99.90;;;-144.05;43.14;56895.56;5054711;28;20190;-81
2023/06/28 07:43:28;;;;;;;5.97;1.60;;;19.70;99.90;;;-144.05;43.54;56870.06;5053870;28;20025;-82
2023/06/28 07:45:58;;;;;;;5.03;1.40;;;19.50;99.90;;;-144.05;44.41;56880.69;5053062;28;20122;-82
2023/06/28 07:48:27;;;;;;;5.07;1.40;;;19.40;99.90;;;-144.05;44.46;56859.47;5054917;28;20499;-80
2023/06/28 07:50:55;;;;;;;3.88;1.45;;;19.30;99.90;;;-144.05;44.59;56865.81;5053066;28;20075;-82
2023/06/28 07:53:21;;;;;;;5.53;1.63;;;19.30;99.90;;;-144.05;45.03;56863.69;5053041;28;20492;-83
2023/06/28 07:55:47;;;;;;;6.38;2.03;;;19.30;99.90;;;-144.05;45.16;56870.06;5055389;28;20029;-83
2023/06/28 07:58:13;;;;;;;2.88;1.20;;;19.40;99.90;;;-144.05;45.47;56870.06;5036811;28;20069;-80
2023/06/28 08:00:39;;;;;;;7.03;1.73;;;19.50;99.90;;;-144.05;45.66;56848.84;5036685;28;20029;-82
2023/06/28 08:03:04;;;;;;;6.60;1.58;;;19.50;99.90;;;-144.05;44.98;56870.06;5053093;28;20040;-80
2023/06/28 08:05:30;;;;;;;5.38;1.27;;;19.50;99.90;;;-144.05;45.27;56867.94;5036795;28;20029;-80
2023/06/28 08:07:56;;;;;;;5.50;1.58;;;19.70;99.90;;;-144.05;44.97;56882.81;5038556;28;20032;-80
2023/06/28 08:10:25;;;;;;;7.30;1.55;;;19.70;99.90;;;-144.05;45.20;56863.69;5056484;28;20051;-81
2023/06/28 08:12:52;;;;;;;3.25;1.40;;;19.80;99.90;;;-144.05;44.69;56840.34;5055613;28;20111;-81
2023/06/28 08:15:18;;;;;;;6.15;1.67;;;19.90;99.90;;;-144.05;45.24;56840.34;5056523;28;20056;-82
2023/06/28 08:17:46;;;;;;;6.63;2.10;;;19.70;99.90;;;-144.05;46.69;56863.69;5039917;28;20021;-82
2023/06/28 08:20:12;;;;;;;5.13;1.60;;;19.30;99.90;;;-144.05;47.24;56878.56;5056374;28;20078;-81
2023/06/28 08:22:38;;;;;;;5.55;2.28;;;19.20;99.90;;;-144.05;46.79;56859.47;5057499;28;20037;-81
2023/06/28 08:25:05;;;;;;;5.72;1.90;;;19.20;99.90;;;-144.05;47.39;56884.94;5039753;28;20040;-79
2023/06/28 08:27:31;;;;;;;4.97;2.17;;;19.30;99.90;;;-144.05;47.04;56853.09;5058710;28;20029;-80
2023/06/28 08:29:58;;;;;;;8.00;2.17;;;19.30;99.90;;;-144.05;47.35;56874.31;5077072;28;20032;-80
2023/06/28 08:32:24;;;;;;;5.30;1.83;;;19.20;99.90;;;-144.05;47.54;56859.47;5059014;28;20060;-79
2023/06/28 08:34:50;;;;;;;3.90;1.60;;;19.30;99.90;;;-144.05;47.03;56878.56;5077083;28;20033;-80
2023/06/28 08:37:17;;;;;;;4.78;2.10;;;19.50;99.90;;;-144.05;46.71;56861.56;5059463;28;20547;-82
2023/06/28 08:39:43;;;;;;;4.60;1.60;;;19.50;99.90;;;-144.05;46.57;56876.44;5076457;28;20021;-80
2023/06/28 08:42:09;;;;;;;8.30;1.92;;;19.60;99.90;;;-144.05;47.02;56882.81;5058394;28;20066;-80
2023/06/28 08:44:40;;;;;;;7.10;2.13;;;19.60;99.90;;;-144.05;47.30;56853.09;5077179;28;20446;-81
2023/06/28 08:47:08;;;;;;;8.40;2.33;;;19.60;99.90;;;-144.05;47.58;56867.94;5076021;28;20031;-81
2023/06/28 08:49:36;;;;;;;6.28;2.05;;;19.40;99.90;;;-144.05;47.44;56887.06;5074317;28;20135;-80
2023/06/28 08:52:05;;;;;;;3.90;1.75;;;19.40;99.90;;;-144.05;47.45;56876.44;5074629;28;20035;-82
2023/06/28 08:54:33;;;;;;;6.40;2.03;;;19.60;99.90;;;-144.05;46.03;56874.31;5058492;28;20029;-82
2023/06/28 08:57:01;;;;;;;9.48;1.98;;;19.70;99.90;;;-144.05;46.23;56887.06;5058478;28;20111;-81
2023/06/28 08:59:29;;;;;;;7.03;1.70;;;19.70;99.90;;;-144.05;46.09;56870.06;5076775;28;20455;-80
2023/06/28 09:01:58;;;;;;;7.35;1.75;;;19.80;99.90;;;-144.05;45.12;56863.69;5058294;28;20024;-82
2023/06/28 09:04:28;;;;;;;8.00;2.05;;;19.90;99.90;;;-144.05;45.04;56884.94;5076432;28;20024;-80
2023/06/28 09:06:56;;;;;;;6.43;1.80;;;20.00;99.90;;;-144.05;45.01;56848.84;5076058;28;20039;-83
2023/06/28 09:09:25;;;;;;;7.13;1.90;;;20.00;99.90;;;-144.05;44.99;56874.31;5067777;28;20037;-84
2023/06/28 09:11:51;;;;;;;7.72;1.60;;;20.40;99.90;;;-144.05;43.61;56893.44;5077821;28;20021;-81
2023/06/28 09:14:17;;;;;;;6.68;1.40;;;20.20;99.90;;;-144.05;44.70;56859.47;5076801;28;20043;-83
2023/06/28 09:16:43;;;;;;;5.10;1.90;;;19.80;99.90;;;-144.05;45.78;56859.47;5059326;28;20123;-81
2023/06/28 09:19:09;;;;;;;3.70;1.38;;;19.50;99.90;;;-144.05;46.07;56872.19;5075798;28;20025;-79
2023/06/28 09:21:35;;;;;;;5.47;1.10;;;19.60;99.90;;;-144.05;45.79;56889.19;5077379;28;20032;-81
2023/06/28 09:24:01;;;;;;;6.57;1.98;;;19.70;99.90;;;-144.05;45.82;56878.56;5077506;28;20024;-80
2023/06/28 09:26:32;;;;;;;4.45;1.50;;;19.50;99.90;;;-144.05;45.47;56870.06;5065102;28;20025;-81
2023/06/28 09:29:16;;;;;;;6.15;1.88;;;19.50;99.90;;;-144.05;45.97;56893.44;5057062;28;20112;-82
2023/06/28 09:31:47;;;;;;;5.05;1.50;;;19.50;99.90;;;-144.05;48.22;56865.81;5056590;28;20055;-81
2023/06/28 09:34:13;;;;;;;5.20;1.40;;;19.60;99.90;;;-144.05;47.10;56872.19;5057105;28;20114;-84
2023/06/28 09:36:40;;;;;;;3.33;1.30;;;20.00;99.90;;;-144.05;45.30;56876.44;5038168;28;20025;-81
2023/06/28 09:39:07;;;;;;;4.18;1.35;;;20.30;99.90;;;-144.05;44.26;56880.69;5075393;28;20089;-77
2023/06/28 09:41:42;;;;;;;1.55;0.93;;;20.60;99.90;;;-144.05;44.49;56889.19;5061176;28;20036;-75
2023/06/28 09:44:10;;;;;;;3.90;1.50;;;21.20;99.90;;;-144.05;43.65;56884.94;5078243;28;20029;-78
2023/06/28 09:46:47;;;;;;;4.45;1.58;;;21.40;99.90;;;-144.05;42.73;56895.56;5077270;28;20037;-77
2023/06/28 09:49:24;;;;;;;8.43;1.90;;;21.50;99.90;;;-144.05;43.00;56887.06;5038367;28;20124;-81
2023/06/28 09:52:02;;;;;;;3.47;1.52;;;21.30;99.90;;;-144.05;44.50;56889.19;5054633;28;20078;-80
2023/06/28 09:54:34;;;;;;;5.65;1.85;;;20.90;99.90;;;-144.05;44.93;56884.94;5054893;28;20204;-79
2023/06/28 09:57:02;;;;;;;3.78;1.70;;;20.70;99.90;;;-144.05;45.13;56895.56;5055190;28;20162;-79
2023/06/28 09:59:33;;;;;;;4.00;1.90;;;20.60;99.90;;;-144.05;46.76;56876.44;5036870;28;20032;-81
2023/06/28 10:02:08;;;;;;;3.50;1.42;;;20.20;99.90;;;-144.05;47.67;56861.56;5053546;28;20021;-80
2023/06/28 10:04:37;;;;;;;4.67;1.70;;;20.20;99.90;;;-144.05;49.66;56901.94;5054510;28;20457;-82